sensor_id;sensor_type;location;lat;lon;timestamp;pressure;altitude;pressure_sealevel;temperature;humidity
42431;BME280;71905;47.466;19.024;2023-12-20T00:00:12;100464.94;;;-0.25;100.00
42431;BME280;71905;47.466;19.024;2023-12-20T00:02:40;100457.97;;;-0.27;100.00
42431;BME280;71905;47.466;19.024;2023-12-20T00:05:11;100449.31;;;-0.26;100.00
42431;BME280;71905;47.466;19.024;2023-12-20T00:07:44;100452.88;;;-0.21;100.00
42431;BME280;71905;47.466;19.024;2023-12-20T00:10:15;100451.03;;;-0.30;100.00
42431;BME280;71905;47.466;19.024;2023-12-20T00:12:45;100451.00;;;-0.32;100.00
42431;BME280;71905;47.466;19.024;2023-12-20T00:15:13;100444.13;;;-0.26;100.00
42431;BME280;71905;47.466;19.024;2023-12-20T00:17:41;100440.75;;;-0.22;100.00
42431;BME280;71905;47.466;19.024;2023-12-20T00:20:12;100442.50;;;-0.21;100.00
42431;BME280;71905;47.466;19.024;2023-12-20T00:22:40;100442.41;;;-0.27;100.00
42431;BME280;71905;47.466;19.024;2023-12-20T00:25:10;100428.53;;;-0.28;100.00
42431;BME280;71905;47.466;19.024;2023-12-20T00:27:38;100430.28;;;-0.27;100.00
42431;BME280;71905;47.466;19.024;2023-12-20T00:30:10;100427.69;;;-0.28;100.00
42431;BME280;71905;47.466;19.024;2023-12-20T00:32:38;100420.72;;;-0.33;100.00
42431;BME280;71905;47.466;19.024;2023-12-20T00:35:08;100413.72;;;-0.38;100.00
42431;BME280;71905;47.466;19.024;2023-12-20T00:37:36;100411.91;;;-0.45;100.00
42431;BME280;71905;47.466;19.024;2023-12-20T00:40:05;100406.78;;;-0.39;100.00
42431;BME280;71905;47.466;19.024;2023-12-20T00:42:35;100409.34;;;-0.41;100.00
42431;BME280;71905;47.466;19.024;2023-12-20T00:45:05;100398.19;;;-0.37;100.00
42431;BME280;71905;47.466;19.024;2023-12-20T00:47:34;100396.41;;;-0.39;100.00
42431;BME280;71905;47.466;19.024;2023-12-20T00:50:03;100392.94;;;-0.40;100.00
42431;BME280;71905;47.466;19.024;2023-12-20T00:52:31;100390.34;;;-0.40;100.00
42431;BME280;71905;47.466;19.024;2023-12-20T00:54:59;100385.09;;;-0.44;100.00
42431;BME280;71905;47.466;19.024;2023-12-20T00:57:27;100372.97;;;-0.47;100.00
42431;BME280;71905;47.466;19.024;2023-12-20T00:59:55;100379.88;;;-0.49;100.00
42431;BME280;71905;47.466;19.024;2023-12-20T01:02:23;100376.47;;;-0.43;100.00
42431;BME280;71905;47.466;19.024;2023-12-20T01:04:53;100374.75;;;-0.43;100.00
42431;BME280;71905;47.466;19.024;2023-12-20T01:07:21;100367.91;;;-0.36;100.00
42431;BME280;71905;47.466;19.024;2023-12-20T01:09:49;100373.09;;;-0.38;100.00
42431;BME280;71905;47.466;19.024;2023-12-20T01:12:17;100363.53;;;-0.40;100.00
42431;BME280;71905;47.466;19.024;2023-12-20T01:14:44;100356.63;;;-0.38;100.00
42431;BME280;71905;47.466;19.024;2023-12-20T01:17:12;100357.53;;;-0.38;100.00
42431;BME280;71905;47.466;19.024;2023-12-20T01:19:41;100355.75;;;-0.39;100.00
42431;BME280;71905;47.466;19.024;2023-12-20T01:22:10;100354.00;;;-0.40;100.00
42431;BME280;71905;47.466;19.024;2023-12-20T01:24:38;100347.94;;;-0.43;100.00
42431;BME280;71905;47.466;19.024;2023-12-20T01:27:06;100348.81;;;-0.41;100.00
42431;BME280;71905;47.466;19.024;2023-12-20T01:29:38;100345.34;;;-0.43;100.00
42431;BME280;71905;47.466;19.024;2023-12-20T01:32:06;100334.97;;;-0.40;100.00
42431;BME280;71905;47.466;19.024;2023-12-20T01:34:34;100333.22;;;-0.43;100.00
42431;BME280;71905;47.466;19.024;2023-12-20T01:37:05;100331.50;;;-0.44;100.00
42431;BME280;71905;47.466;19.024;2023-12-20T01:39:36;100323.72;;;-0.44;100.00
42431;BME280;71905;47.466;19.024;2023-12-20T01:42:04;100335.81;;;-0.43;100.00
42431;BME280;71905;47.466;19.024;2023-12-20T01:44:37;100314.19;;;-0.43;100.00
42431;BME280;71905;47.466;19.024;2023-12-20T01:47:08;100309.84;;;-0.46;100.00
42431;BME280;71905;47.466;19.024;2023-12-20T01:49:38;100309.81;;;-0.49;100.00
42431;BME280;71905;47.466;19.024;2023-12-20T01:52:08;100309.88;;;-0.44;100.00
42431;BME280;71905;47.466;19.024;2023-12-20T01:54:40;100291.59;;;-0.55;100.00
42431;BME280;71905;47.466;19.024;2023-12-20T01:57:10;100294.97;;;-0.62;100.00
42431;BME280;71905;47.466;19.024;2023-12-20T01:59:42;100284.66;;;-0.56;100.00
42431;BME280;71905;47.466;19.024;2023-12-20T02:02:11;100271.69;;;-0.54;100.00
42431;BME280;71905;47.466;19.024;2023-12-20T02:04:40;100263.94;;;-0.53;100.00
42431;BME280;71905;47.466;19.024;2023-12-20T02:07:11;100265.63;;;-0.58;100.00
42431;BME280;71905;47.466;19.024;2023-12-20T02:09:41;100256.09;;;-0.61;100.00
42431;BME280;71905;47.466;19.024;2023-12-20T02:12:10;100260.44;;;-0.58;100.00
42431;BME280;71905;47.466;19.024;2023-12-20T02:14:44;100253.50;;;-0.59;100.00
42431;BME280;71905;47.466;19.024;2023-12-20T02:17:12;100258.72;;;-0.54;100.00
42431;BME280;71905;47.466;19.024;2023-12-20T02:19:40;100249.16;;;-0.63;100.00
42431;BME280;71905;47.466;19.024;2023-12-20T02:22:10;100249.16;;;-0.63;100.00
42431;BME280;71905;47.466;19.024;2023-12-20T02:24:39;100252.59;;;-0.63;100.00
42431;BME280;71905;47.466;19.024;2023-12-20T02:27:08;100247.41;;;-0.63;100.00
42431;BME280;71905;47.466;19.024;2023-12-20T02:29:36;100237.81;;;-0.68;100.00
42431;BME280;71905;47.466;19.024;2023-12-20T02:32:04;100241.38;;;-0.63;100.00
42431;BME280;71905;47.466;19.024;2023-12-20T02:34:32;100236.97;;;-0.69;100.00
42431;BME280;71905;47.466;19.024;2023-12-20T02:37:00;100231.75;;;-0.72;100.00
42431;BME280;71905;47.466;19.024;2023-12-20T02:39:30;100236.91;;;-0.73;100.00
42431;BME280;71905;47.466;19.024;2023-12-20T02:41:58;100228.28;;;-0.72;100.00
42431;BME280;71905;47.466;19.024;2023-12-20T02:44:26;100230.03;;;-0.71;100.00
42431;BME280;71905;47.466;19.024;2023-12-20T02:46:54;100227.44;;;-0.70;100.00
42431;BME280;71905;47.466;19.024;2023-12-20T02:49:22;100218.81;;;-0.69;100.00
42431;BME280;71905;47.466;19.024;2023-12-20T02:51:50;100212.75;;;-0.69;100.00
42431;BME280;71905;47.466;19.024;2023-12-20T02:54:18;100206.72;;;-0.67;100.00
42431;BME280;71905;47.466;19.024;2023-12-20T02:56:48;100196.31;;;-0.71;100.00
42431;BME280;71905;47.466;19.024;2023-12-20T02:59:16;100196.31;;;-0.70;100.00
42431;BME280;71905;47.466;19.024;2023-12-20T03:01:45;100196.34;;;-0.67;100.00
42431;BME280;71905;47.466;19.024;2023-12-20T03:04:13;100202.41;;;-0.66;100.00
42431;BME280;71905;47.466;19.024;2023-12-20T03:06:41;100206.72;;;-0.68;100.00
42431;BME280;71905;47.466;19.024;2023-12-20T03:09:09;100198.91;;;-0.70;100.00
42431;BME280;71905;47.466;19.024;2023-12-20T03:11:37;100209.31;;;-0.68;100.00
42431;BME280;71905;47.466;19.024;2023-12-20T03:14:07;100208.41;;;-0.70;100.00
42431;BME280;71905;47.466;19.024;2023-12-20T03:16:35;100205.81;;;-0.73;100.00
42431;BME280;71905;47.466;19.024;2023-12-20T03:19:03;100198.91;;;-0.71;100.00
42431;BME280;71905;47.466;19.024;2023-12-20T03:21:31;100197.19;;;-0.71;100.00
42431;BME280;71905;47.466;19.024;2023-12-20T03:23:59;100207.59;;;-0.66;100.00
42431;BME280;71905;47.466;19.024;2023-12-20T03:26:27;100205.06;;;-0.63;100.00
42431;BME280;71905;47.466;19.024;2023-12-20T03:28:55;100210.19;;;-0.66;100.00
42431;BME280;71905;47.466;19.024;2023-12-20T03:31:24;100200.75;;;-0.61;100.00
42431;BME280;71905;47.466;19.024;2023-12-20T03:33:53;100201.63;;;-0.61;100.00
42431;BME280;71905;47.466;19.024;2023-12-20T03:36:21;100199.03;;;-0.61;100.00
42431;BME280;71905;47.466;19.024;2023-12-20T03:38:49;100207.66;;;-0.60;100.00
42431;BME280;71905;47.466;19.024;2023-12-20T03:41:17;100206.81;;;-0.59;100.00
42431;BME280;71905;47.466;19.024;2023-12-20T03:43:45;100205.06;;;-0.60;100.00
42431;BME280;71905;47.466;19.024;2023-12-20T03:46:13;100200.69;;;-0.66;100.00
42431;BME280;71905;47.466;19.024;2023-12-20T03:48:42;100199.88;;;-0.63;100.00
42431;BME280;71905;47.466;19.024;2023-12-20T03:51:10;100209.31;;;-0.65;100.00
42431;BME280;71905;47.466;19.024;2023-12-20T03:53:38;100205.88;;;-0.64;100.00
42431;BME280;71905;47.466;19.024;2023-12-20T03:56:07;100199.81;;;-0.65;100.00
42431;BME280;71905;47.466;19.024;2023-12-20T03:58:35;100203.25;;;-0.67;100.00
42431;BME280;71905;47.466;19.024;2023-12-20T04:01:03;100189.44;;;-0.66;100.00
42431;BME280;71905;47.466;19.024;2023-12-20T04:03:31;100190.28;;;-0.69;100.00
42431;BME280;71905;47.466;19.024;2023-12-20T04:06:02;100198.06;;;-0.67;100.00
42431;BME280;71905;47.466;19.024;2023-12-20T04:08:30;100183.31;;;-0.74;100.00
42431;BME280;71905;47.466;19.024;2023-12-20T04:10:58;100176.41;;;-0.75;100.00
42431;BME280;71905;47.466;19.024;2023-12-20T04:13:26;100178.06;;;-0.77;100.00
42431;BME280;71905;47.466;19.024;2023-12-20T04:15:54;100174.63;;;-0.78;100.00
42431;BME280;71905;47.466;19.024;2023-12-20T04:18:24;100179.81;;;-0.78;100.00
42431;BME280;71905;47.466;19.024;2023-12-20T04:20:52;100180.66;;;-0.77;100.00
42431;BME280;71905;47.466;19.024;2023-12-20T04:23:22;100182.44;;;-0.75;100.00
42431;BME280;71905;47.466;19.024;2023-12-20T04:25:50;100178.19;;;-0.67;100.00
42431;BME280;71905;47.466;19.024;2023-12-20T04:28:18;100163.50;;;-0.68;100.00
42431;BME280;71905;47.466;19.024;2023-12-20T04:30:46;100160.84;;;-0.75;100.00
42431;BME280;71905;47.466;19.024;2023-12-20T04:33:14;100165.13;;;-0.77;100.00
42431;BME280;71905;47.466;19.024;2023-12-20T04:35:42;100157.38;;;-0.76;100.00
42431;BME280;71905;47.466;19.024;2023-12-20T04:38:18;100150.41;;;-0.80;100.00
42431;BME280;71905;47.466;19.024;2023-12-20T04:40:47;100142.63;;;-0.81;100.00
42431;BME280;71905;47.466;19.024;2023-12-20T04:43:15;100140.00;;;-0.84;100.00
42431;BME280;71905;47.466;19.024;2023-12-20T04:45:43;100143.50;;;-0.79;100.00
42431;BME280;71905;47.466;19.024;2023-12-20T04:48:12;100154.78;;;-0.76;100.00
42431;BME280;71905;47.466;19.024;2023-12-20T04:50:40;100141.75;;;-0.79;100.00
42431;BME280;71905;47.466;19.024;2023-12-20T04:53:08;100140.00;;;-0.84;100.00
42431;BME280;71905;47.466;19.024;2023-12-20T04:55:36;100128.72;;;-0.88;100.00
42431;BME280;71905;47.466;19.024;2023-12-20T04:58:07;100113.19;;;-0.86;100.00
42431;BME280;71905;47.466;19.024;2023-12-20T05:00:35;100110.50;;;-0.97;100.00
42431;BME280;71905;47.466;19.024;2023-12-20T05:03:04;100104.47;;;-0.93;100.00
42431;BME280;71905;47.466;19.024;2023-12-20T05:05:31;100101.91;;;-0.90;100.00
42431;BME280;71905;47.466;19.024;2023-12-20T05:07:59;100095.84;;;-0.91;100.00
42431;BME280;71905;47.466;19.024;2023-12-20T05:10:27;100088.94;;;-0.92;100.00
42431;BME280;71905;47.466;19.024;2023-12-20T05:12:55;100098.41;;;-0.97;100.00
42431;BME280;71905;47.466;19.024;2023-12-20T05:15:25;100082.03;;;-0.90;100.00
42431;BME280;71905;47.466;19.024;2023-12-20T05:17:53;100090.66;;;-0.91;100.00
42431;BME280;71905;47.466;19.024;2023-12-20T05:20:21;100088.06;;;-0.92;100.00
42431;BME280;71905;47.466;19.024;2023-12-20T05:22:50;100082.88;;;-0.91;100.00
42431;BME280;71905;47.466;19.024;2023-12-20T05:25:18;100077.69;;;-0.91;100.00
42431;BME280;71905;47.466;19.024;2023-12-20T05:27:46;100079.38;;;-0.97;100.00
42431;BME280;71905;47.466;19.024;2023-12-20T05:30:15;100085.47;;;-0.91;100.00
42431;BME280;71905;47.466;19.024;2023-12-20T05:32:44;100099.28;;;-0.92;100.00
42431;BME280;71905;47.466;19.024;2023-12-20T05:35:12;100126.97;;;-0.89;100.00
42431;BME280;71905;47.466;19.024;2023-12-20T05:37:41;100122.72;;;-0.84;100.00
42431;BME280;71905;47.466;19.024;2023-12-20T05:40:10;100123.56;;;-0.88;100.00
42431;BME280;71905;47.466;19.024;2023-12-20T05:42:38;100124.41;;;-0.87;100.00
42431;BME280;71905;47.466;19.024;2023-12-20T05:45:09;100115.72;;;-0.91;100.00
42431;BME280;71905;47.466;19.024;2023-12-20T05:47:37;100101.88;;;-0.92;100.00
42431;BME280;71905;47.466;19.024;2023-12-20T05:50:10;100093.22;;;-0.94;100.00
42431;BME280;71905;47.466;19.024;2023-12-20T05:52:49;100095.78;;;-1.00;100.00
42431;BME280;71905;47.466;19.024;2023-12-20T05:55:20;100083.59;;;-1.05;100.00
42431;BME280;71905;47.466;19.024;2023-12-20T05:57:48;100073.31;;;-1.01;100.00
42431;BME280;71905;47.466;19.024;2023-12-20T06:00:17;100076.69;;;-1.06;100.00
42431;BME280;71905;47.466;19.024;2023-12-20T06:02:45;100078.41;;;-1.10;100.00
42431;BME280;71905;47.466;19.024;2023-12-20T06:05:15;100077.50;;;-1.13;100.00
42431;BME280;71905;47.466;19.024;2023-12-20T06:07:43;100065.34;;;-1.17;100.00
42431;BME280;71905;47.466;19.024;2023-12-20T06:10:12;100069.56;;;-1.27;100.00
42431;BME280;71905;47.466;19.024;2023-12-20T06:12:40;100064.38;;;-1.27;100.00
42431;BME280;71905;47.466;19.024;2023-12-20T06:15:09;100068.63;;;-1.34;100.00
42431;BME280;71905;47.466;19.024;2023-12-20T06:17:37;100052.25;;;-1.33;100.00
42431;BME280;71905;47.466;19.024;2023-12-20T06:20:07;100056.56;;;-1.33;100.00
42431;BME280;71905;47.466;19.024;2023-12-20T06:22:37;100066.06;;;-1.32;100.00
42431;BME280;71905;47.466;19.024;2023-12-20T06:25:06;100060.09;;;-1.27;100.00
42431;BME280;71905;47.466;19.024;2023-12-20T06:27:35;100055.72;;;-1.29;100.00
42431;BME280;71905;47.466;19.024;2023-12-20T06:30:03;100065.28;;;-1.24;100.00
42431;BME280;71905;47.466;19.024;2023-12-20T06:32:31;100062.69;;;-1.27;100.00
42431;BME280;71905;47.466;19.024;2023-12-20T06:35:01;100070.47;;;-1.27;100.00
42431;BME280;71905;47.466;19.024;2023-12-20T06:37:29;100073.81;;;-1.35;100.00
42431;BME280;71905;47.466;19.024;2023-12-20T06:39:59;100083.34;;;-1.31;100.00
42431;BME280;71905;47.466;19.024;2023-12-20T06:42:27;100075.44;;;-1.42;100.00
42431;BME280;71905;47.466;19.024;2023-12-20T06:44:58;100096.38;;;-1.25;100.00
42431;BME280;71905;47.466;19.024;2023-12-20T06:47:26;100099.69;;;-1.37;100.00
42431;BME280;71905;47.466;19.024;2023-12-20T06:49:54;100111.78;;;-1.37;100.00
42431;BME280;71905;47.466;19.024;2023-12-20T06:52:22;100125.66;;;-1.31;100.00
42431;BME280;71905;47.466;19.024;2023-12-20T06:54:51;100127.38;;;-1.31;100.00
42431;BME280;71905;47.466;19.024;2023-12-20T06:57:20;100123.09;;;-1.29;100.00
42431;BME280;71905;47.466;19.024;2023-12-20T06:59:48;100126.50;;;-1.32;100.00
42431;BME280;71905;47.466;19.024;2023-12-20T07:02:16;100127.38;;;-1.33;100.00
42431;BME280;71905;47.466;19.024;2023-12-20T07:04:44;100118.72;;;-1.33;100.00
42431;BME280;71905;47.466;19.024;2023-12-20T07:07:14;100124.81;;;-1.28;100.00
42431;BME280;71905;47.466;19.024;2023-12-20T07:09:42;100122.28;;;-1.27;100.00
42431;BME280;71905;47.466;19.024;2023-12-20T07:12:10;100124.78;;;-1.31;100.00
42431;BME280;71905;47.466;19.024;2023-12-20T07:14:39;100109.34;;;-1.25;100.00
42431;BME280;71905;47.466;19.024;2023-12-20T07:17:07;100107.53;;;-1.29;100.00
42431;BME280;71905;47.466;19.024;2023-12-20T07:19:39;100113.56;;;-1.30;100.00
42431;BME280;71905;47.466;19.024;2023-12-20T07:22:08;100105.88;;;-1.24;100.00
42431;BME280;71905;47.466;19.024;2023-12-20T07:24:36;100111.84;;;-1.31;100.00
42431;BME280;71905;47.466;19.024;2023-12-20T07:27:04;100116.16;;;-1.30;100.00
42431;BME280;71905;47.466;19.024;2023-12-20T07:29:32;100112.72;;;-1.28;100.00
42431;BME280;71905;47.466;19.024;2023-12-20T07:32:01;100107.59;;;-1.25;100.00
42431;BME280;71905;47.466;19.024;2023-12-20T07:34:29;100106.66;;;-1.31;100.00
42431;BME280;71905;47.466;19.024;2023-12-20T07:37:01;100117.97;;;-1.25;100.00
42431;BME280;71905;47.466;19.024;2023-12-20T07:39:29;100117.09;;;-1.25;100.00
42431;BME280;71905;47.466;19.024;2023-12-20T07:41:57;100115.41;;;-1.22;100.00
42431;BME280;71905;47.466;19.024;2023-12-20T07:44:24;100118.97;;;-1.13;100.00
42431;BME280;71905;47.466;19.024;2023-12-20T07:46:53;100117.16;;;-1.17;100.00
42431;BME280;71905;47.466;19.024;2023-12-20T07:49:22;100119.75;;;-1.17;100.00
42431;BME280;71905;47.466;19.024;2023-12-20T07:51:50;100114.66;;;-1.13;100.00
42431;BME280;71905;47.466;19.024;2023-12-20T07:54:18;100108.66;;;-1.07;100.00
42431;BME280;71905;47.466;19.024;2023-12-20T07:56:46;100105.22;;;-1.03;100.00
42431;BME280;71905;47.466;19.024;2023-12-20T07:59:14;100106.16;;;-1.00;100.00
42431;BME280;71905;47.466;19.024;2023-12-20T08:01:56;100084.56;;;-0.99;100.00
42431;BME280;71905;47.466;19.024;2023-12-20T08:04:25;100087.16;;;-0.96;100.00
42431;BME280;71905;47.466;19.024;2023-12-20T08:06:54;100082.88;;;-0.94;100.00
42431;BME280;71905;47.466;19.024;2023-12-20T08:09:22;100082.88;;;-0.94;100.00
42431;BME280;71905;47.466;19.024;2023-12-20T08:11:50;100086.41;;;-0.85;100.00
42431;BME280;71905;47.466;19.024;2023-12-20T08:14:18;100087.28;;;-0.83;100.00
42431;BME280;71905;47.466;19.024;2023-12-20T08:16:46;100089.91;;;-0.79;100.00
42431;BME280;71905;47.466;19.024;2023-12-20T08:19:14;100085.63;;;-0.75;100.00
42431;BME280;71905;47.466;19.024;2023-12-20T08:21:43;100082.19;;;-0.76;100.00
42431;BME280;71905;47.466;19.024;2023-12-20T08:24:11;100084.81;;;-0.68;100.00
42431;BME280;71905;47.466;19.024;2023-12-20T08:26:39;100083.97;;;-0.64;100.00
42431;BME280;71905;47.466;19.024;2023-12-20T08:29:07;100086.63;;;-0.61;100.00
42431;BME280;71905;47.466;19.024;2023-12-20T08:31:34;100091.75;;;-0.64;100.00
42431;BME280;71905;47.466;19.024;2023-12-20T08:34:02;100096.06;;;-0.65;100.00
42431;BME280;71905;47.466;19.024;2023-12-20T08:36:33;100098.72;;;-0.62;100.00
42431;BME280;71905;47.466;19.024;2023-12-20T08:39:03;100097.81;;;-0.64;100.00
42431;BME280;71905;47.466;19.024;2023-12-20T08:41:35;100099.59;;;-0.61;100.00
42431;BME280;71905;47.466;19.024;2023-12-20T08:44:03;100092.69;;;-0.56;100.00
42431;BME280;71905;47.466;19.024;2023-12-20T08:46:32;100091.84;;;-0.55;100.00
42431;BME280;71905;47.466;19.024;2023-12-20T08:49:00;100098.78;;;-0.54;100.00
42431;BME280;71905;47.466;19.024;2023-12-20T08:51:28;100097.00;;;-0.60;100.00
42431;BME280;71905;47.466;19.024;2023-12-20T08:53:56;100098.78;;;-0.52;100.00
42431;BME280;71905;47.466;19.024;2023-12-20T08:56:25;100092.69;;;-0.56;100.00
42431;BME280;71905;47.466;19.024;2023-12-20T08:58:53;100096.19;;;-0.52;100.00
42431;BME280;71905;47.466;19.024;2023-12-20T09:01:21;100098.00;;;-0.44;100.00
42431;BME280;71905;47.466;19.024;2023-12-20T09:03:49;100098.00;;;-0.42;100.00
42431;BME280;71905;47.466;19.024;2023-12-20T09:06:17;100094.53;;;-0.44;100.00
42431;BME280;71905;47.466;19.024;2023-12-20T09:08:45;100101.47;;;-0.42;100.00
42431;BME280;71905;47.466;19.024;2023-12-20T09:11:14;100097.09;;;-0.47;100.00
42431;BME280;71905;47.466;19.024;2023-12-20T09:13:43;100090.22;;;-0.42;100.00
42431;BME280;71905;47.466;19.024;2023-12-20T09:16:12;100085.03;;;-0.41;100.00
42431;BME280;71905;47.466;19.024;2023-12-20T09:18:42;100085.00;;;-0.45;100.00
42431;BME280;71905;47.466;19.024;2023-12-20T09:21:10;100089.34;;;-0.43;100.00
42431;BME280;71905;47.466;19.024;2023-12-20T09:23:39;100076.44;;;-0.35;100.00
42431;BME280;71905;47.466;19.024;2023-12-20T09:26:07;100080.75;;;-0.36;100.00
42431;BME280;71905;47.466;19.024;2023-12-20T09:28:35;100068.59;;;-0.40;100.00
42431;BME280;71905;47.466;19.024;2023-12-20T09:31:06;100071.28;;;-0.31;100.00
42431;BME280;71905;47.466;19.024;2023-12-20T09:33:34;100067.88;;;-0.25;100.00
42431;BME280;71905;47.466;19.024;2023-12-20T09:36:04;100054.84;;;-0.26;100.00
42431;BME280;71905;47.466;19.024;2023-12-20T09:38:32;100051.44;;;-0.19;100.00
42431;BME280;71905;47.466;19.024;2023-12-20T09:41:01;100045.41;;;-0.14;100.00
42431;BME280;71905;47.466;19.024;2023-12-20T09:43:35;100050.59;;;-0.15;100.00
42431;BME280;71905;47.466;19.024;2023-12-20T09:46:06;100046.28;;;-0.15;100.00
42431;BME280;71905;47.466;19.024;2023-12-20T09:48:36;100034.16;;;-0.13;100.00
42431;BME280;71905;47.466;19.024;2023-12-20T09:51:04;100028.16;;;-0.06;100.00
42431;BME280;71905;47.466;19.024;2023-12-20T09:53:35;100029.94;;;0.05;100.00
42431;BME280;71905;47.466;19.024;2023-12-20T09:56:05;100038.66;;;0.17;100.00
42431;BME280;71905;47.466;19.024;2023-12-20T09:58:37;100012.69;;;0.14;100.00
42431;BME280;71905;47.466;19.024;2023-12-20T10:01:07;100018.81;;;0.33;100.00
42431;BME280;71905;47.466;19.024;2023-12-20T10:03:39;100016.25;;;0.42;100.00
42431;BME280;71905;47.466;19.024;2023-12-20T10:06:09;100005.00;;;0.40;100.00
42431;BME280;71905;47.466;19.024;2023-12-20T10:08:38;100006.69;;;0.35;100.00
42431;BME280;71905;47.466;19.024;2023-12-20T10:11:06;100005.81;;;0.35;100.00
42431;BME280;71905;47.466;19.024;2023-12-20T10:13:39;100010.19;;;0.39;100.00
42431;BME280;71905;47.466;19.024;2023-12-20T10:16:09;99999.81;;;0.51;100.00
42431;BME280;71905;47.466;19.024;2023-12-20T10:18:37;99990.28;;;0.59;100.00
42431;BME280;71905;47.466;19.024;2023-12-20T10:21:06;99996.34;;;0.59;100.00
42431;BME280;71905;47.466;19.024;2023-12-20T10:23:37;99982.50;;;0.62;100.00
42431;BME280;71905;47.466;19.024;2023-12-20T10:26:06;99955.66;;;0.71;100.00
42431;BME280;71905;47.466;19.024;2023-12-20T10:28:34;99958.25;;;0.84;100.00
42431;BME280;71905;47.466;19.024;2023-12-20T10:31:02;99958.28;;;0.94;100.00
42431;BME280;71905;47.466;19.024;2023-12-20T10:33:32;99954.78;;;0.98;100.00
42431;BME280;71905;47.466;19.024;2023-12-20T10:36:01;99953.09;;;1.04;100.00
42431;BME280;71905;47.466;19.024;2023-12-20T10:38:29;99954.78;;;1.10;100.00
42431;BME280;71905;47.466;19.024;2023-12-20T10:40:57;99945.28;;;1.04;100.00
42431;BME280;71905;47.466;19.024;2023-12-20T10:43:27;99947.88;;;1.06;100.00
42431;BME280;71905;47.466;19.024;2023-12-20T10:45:57;99942.69;;;1.04;100.00
42431;BME280;71905;47.466;19.024;2023-12-20T10:48:26;99933.97;;;1.11;100.00
42431;BME280;71905;47.466;19.024;2023-12-20T10:50:59;99942.66;;;1.21;100.00
42431;BME280;71905;47.466;19.024;2023-12-20T10:53:27;99929.63;;;1.26;100.00
42431;BME280;71905;47.466;19.024;2023-12-20T10:55:56;99925.28;;;1.32;100.00
42431;BME280;71905;47.466;19.024;2023-12-20T10:58:29;99927.00;;;1.42;100.00
42431;BME280;71905;47.466;19.024;2023-12-20T11:01:01;99933.91;;;1.48;100.00
42431;BME280;71905;47.466;19.024;2023-12-20T11:03:32;99933.03;;;1.57;100.00
42431;BME280;71905;47.466;19.024;2023-12-20T11:06:08;99925.22;;;1.66;100.00
42431;BME280;71905;47.466;19.024;2023-12-20T11:08:41;99916.47;;;1.74;100.00
42431;BME280;71905;47.466;19.024;2023-12-20T11:11:15;99912.09;;;1.86;100.00
42431;BME280;71905;47.466;19.024;2023-12-20T11:13:55;99898.19;;;1.93;100.00
42431;BME280;71905;47.466;19.024;2023-12-20T11:16:25;99897.25;;;2.06;100.00
42431;BME280;71905;47.466;19.024;2023-12-20T11:19:06;99888.47;;;2.22;100.00
42431;BME280;71905;47.466;19.024;2023-12-20T11:21:36;99869.22;;;2.40;100.00
42431;BME280;71905;47.466;19.024;2023-12-20T11:24:05;99863.91;;;2.55;100.00
42431;BME280;71905;47.466;19.024;2023-12-20T11:26:33;99856.84;;;2.68;100.00
42431;BME280;71905;47.466;19.024;2023-12-20T11:29:32;99841.06;;;2.85;100.00
42431;BME280;71905;47.466;19.024;2023-12-20T11:32:03;99836.59;;;2.96;100.00
42431;BME280;71905;47.466;19.024;2023-12-20T11:34:53;99826.91;;;3.07;100.00
42431;BME280;71905;47.466;19.024;2023-12-20T11:37:28;99816.31;;;3.22;100.00
42431;BME280;71905;47.466;19.024;2023-12-20T11:40:00;99818.72;;;3.39;100.00
42431;BME280;71905;47.466;19.024;2023-12-20T11:42:32;99825.47;;;3.55;100.00
42431;BME280;71905;47.466;19.024;2023-12-20T11:45:02;99828.72;;;3.74;100.00
42431;BME280;71905;47.466;19.024;2023-12-20T11:47:31;99828.44;;;3.93;100.00
42431;BME280;71905;47.466;19.024;2023-12-20T11:49:59;99822.03;;;4.15;100.00
42431;BME280;71905;47.466;19.024;2023-12-20T11:52:32;99813.88;;;4.36;100.00
42431;BME280;71905;47.466;19.024;2023-12-20T11:55:00;99818.69;;;4.61;100.00
42431;BME280;71905;47.466;19.024;2023-12-20T11:57:29;99802.69;;;4.79;100.00
42431;BME280;71905;47.466;19.024;2023-12-20T11:59:57;99799.88;;;4.90;100.00
42431;BME280;71905;47.466;19.024;2023-12-20T12:02:25;99800.75;;;4.89;100.00
42431;BME280;71905;47.466;19.024;2023-12-20T12:04:53;99801.81;;;4.79;100.00
42431;BME280;71905;47.466;19.024;2023-12-20T12:07:22;99779.94;;;4.83;100.00
42431;BME280;71905;47.466;19.024;2023-12-20T12:09:51;99780.97;;;5.19;100.00
42431;BME280;71905;47.466;19.024;2023-12-20T12:12:20;99783.06;;;5.45;100.00
42431;BME280;71905;47.466;19.024;2023-12-20T12:14:49;99777.66;;;5.94;100.00
42431;BME280;71905;47.466;19.024;2023-12-20T12:17:17;99769.22;;;6.18;100.00
42431;BME280;71905;47.466;19.024;2023-12-20T12:19:45;99778.13;;;6.48;100.00
42431;BME280;71905;47.466;19.024;2023-12-20T12:22:14;99779.72;;;6.54;100.00
42431;BME280;71905;47.466;19.024;2023-12-20T12:24:44;99778.50;;;6.67;100.00
42431;BME280;71905;47.466;19.024;2023-12-20T12:27:14;99781.84;;;6.72;100.00
42431;BME280;71905;47.466;19.024;2023-12-20T12:30:00;99779.41;;;6.66;100.00
42431;BME280;71905;47.466;19.024;2023-12-20T12:32:28;99786.56;;;6.60;100.00
42431;BME280;71905;47.466;19.024;2023-12-20T12:34:56;99792.97;;;6.49;100.00
42431;BME280;71905;47.466;19.024;2023-12-20T12:37:25;99785.22;;;6.43;100.00
42431;BME280;71905;47.466;19.024;2023-12-20T12:39:53;99787.94;;;6.40;100.00
42431;BME280;71905;47.466;19.024;2023-12-20T12:42:23;99781.03;;;6.36;100.00